createdAt,value
2019-04-10T00:04:21.084Z,62143.09
2019-04-10T00:06:48.658Z,62145.52
2019-04-10T00:09:14.896Z,62139.84
2019-04-10T00:11:41.261Z,62147.61
2019-04-10T00:14:08.248Z,62148.76
2019-04-10T00:16:36.175Z,62148.70
2019-04-10T00:19:04.500Z,62152.48
2019-04-10T00:21:31.327Z,62165.51
2019-04-10T00:23:59.650Z,62147.61
2019-04-10T00:26:27.882Z,62013.05
2019-04-10T00:28:56.031Z,62148.08
2019-04-10T00:31:24.340Z,62139.71
2019-04-10T00:36:28.888Z,62146.74
2019-04-10T00:38:55.908Z,62148.76
2019-04-10T00:41:23.983Z,62152.20
2019-04-10T00:43:51.557Z,62149.63
2019-04-10T00:46:17.915Z,62150.11
2019-04-10T00:48:44.269Z,62153.96
2019-04-10T00:51:10.891Z,62150.53
2019-04-10T00:53:38.720Z,62149.98
2019-04-10T00:56:05.118Z,62149.03
2019-04-10T00:58:31.359Z,62147.42
2019-04-10T01:00:57.613Z,62146.87
2019-04-10T01:03:43.945Z,62150.37
2019-04-10T01:09:16.379Z,62139.30
2019-04-10T01:11:45.465Z,62149.07
2019-04-10T01:14:25.507Z,62139.83
2019-04-10T01:16:53.187Z,62127.80
2019-04-10T01:19:19.662Z,62126.58
2019-04-10T01:21:46.458Z,62121.12
2019-04-10T01:24:14.305Z,62125.52
2019-04-10T01:26:40.588Z,62132.86
2019-04-10T01:29:06.834Z,62117.88
2019-04-10T01:31:33.098Z,62115.77
2019-04-10T01:33:59.325Z,62113.07
2019-04-10T01:36:25.604Z,62108.87
2019-04-10T01:41:59.233Z,62108.55
2019-04-10T01:44:25.486Z,62116.43
2019-04-10T01:46:52.840Z,62104.70
2019-04-10T01:49:19.660Z,62107.27
2019-04-10T01:51:47.702Z,62108.55
2019-04-10T01:54:14.988Z,62118.61
2019-04-10T01:56:42.135Z,62105.98
2019-04-10T02:04:31.055Z,62103.29
2019-04-10T02:06:58.771Z,62103.89
2019-04-10T02:09:25.617Z,62101.17
2019-04-10T02:11:54.375Z,62090.11
2019-04-10T02:14:22.360Z,62093.75
2019-04-10T02:16:49.519Z,62093.02
2019-04-10T02:19:16.358Z,62086.12
2019-04-10T02:21:44.274Z,62084.36
2019-04-10T02:24:12.076Z,62090.36
2019-04-10T02:26:38.345Z,62093.60
2019-04-10T02:29:04.598Z,62088.48
2019-04-10T02:31:32.015Z,62086.52
2019-04-10T02:33:59.937Z,62090.90
2019-04-10T02:36:29.176Z,62088.21
2019-04-10T02:39:08.486Z,62086.93
2019-04-10T02:41:23.603Z,62083.27
2019-04-10T02:43:51.269Z,62074.43
2019-04-10T02:46:19.676Z,62078.87
2019-04-10T02:48:47.642Z,62074.16
2019-04-10T02:51:15.443Z,61992.40
2019-04-10T02:53:43.795Z,62071.24
2019-04-10T02:56:11.846Z,61997.25
2019-04-10T03:01:19.887Z,62058.09
2019-04-10T03:03:47.045Z,62053.22
2019-04-10T03:06:13.604Z,62049.05
2019-04-10T03:11:20.118Z,62051.61
2019-04-10T03:13:47.288Z,62052.54
2019-04-10T03:16:14.569Z,62053.08
2019-04-10T03:21:16.577Z,62050.58
2019-04-10T03:23:42.856Z,62040.94
2019-04-10T03:26:09.722Z,62041.35
2019-04-10T03:28:37.287Z,62037.70
2019-04-10T03:31:05.865Z,62037.16
2019-04-10T03:33:54.130Z,62032.44
2019-04-10T03:36:19.717Z,62037.21
2019-04-10T03:38:55.446Z,62034.39
2019-04-10T03:41:14.435Z,62027.63
2019-04-10T03:43:41.677Z,62033.84
2019-04-10T03:46:08.966Z,62032.35
2019-04-10T03:48:35.201Z,62029.05
2019-04-10T03:51:01.478Z,62035.59
2019-04-10T03:53:29.979Z,62037.21
2019-04-10T03:55:57.088Z,62033.57
2019-04-10T03:58:25.137Z,62038.50
2019-04-10T04:00:52.848Z,62037.02
2019-04-10T04:03:19.099Z,62037.02
2019-04-10T04:05:45.382Z,62039.18
2019-04-10T04:08:11.627Z,62055.57
2019-04-10T04:10:37.973Z,62048.21
2019-04-10T04:13:05.790Z,62044.18
2019-04-10T04:15:33.661Z,62049.11
2019-04-10T04:18:00.840Z,62052.13
2019-04-10T04:20:27.082Z,62054.85
2019-04-10T04:22:53.337Z,62064.28
2019-04-10T04:25:19.591Z,62064.22
2019-04-10T04:27:46.362Z,62069.63
2019-04-10T04:30:14.732Z,62075.44
2019-04-10T04:32:41.781Z,62072.88
2019-04-10T04:37:39.518Z,62074.83
2019-04-10T04:40:05.990Z,62078.68
2019-04-10T04:42:33.011Z,62075.24
2019-04-10T04:45:00.809Z,62074.16
2019-04-10T04:47:28.796Z,62068.76
2019-04-10T04:49:55.240Z,62079.36
2019-04-10T04:52:21.511Z,62073.42
2019-04-10T04:54:47.803Z,62071.59
2019-04-10T04:57:14.924Z,62076.66
2019-04-10T04:59:41.330Z,62064.92
2019-04-10T05:02:07.945Z,62056.07
2019-04-10T05:04:35.476Z,62065.31
2019-04-10T05:09:35.591Z,62064.70
2019-04-10T05:11:58.681Z,62077.40
2019-04-10T05:14:24.935Z,62073.42
2019-04-10T05:16:52.061Z,62086.05
2019-04-10T05:19:19.556Z,62081.92
2019-04-10T05:21:45.827Z,62081.73
2019-04-10T05:24:12.181Z,62078.96
2019-04-10T05:29:31.277Z,62081.24
2019-04-10T05:32:21.503Z,62083.33
2019-04-10T05:34:48.850Z,62081.39
2019-04-10T05:37:15.708Z,62092.13
2019-04-10T05:39:49.168Z,62105.44
2019-04-10T05:42:11.421Z,62103.42
2019-04-10T05:44:38.134Z,62114.10
2019-04-10T05:47:05.860Z,62110.92
2019-04-10T05:49:33.141Z,62114.16
2019-04-10T05:52:02.019Z,62106.24
2019-04-10T05:54:28.291Z,62106.45
2019-04-10T05:56:54.718Z,62098.47
2019-04-10T05:59:21.797Z,62091.25
2019-04-10T06:01:50.498Z,62084.55
2019-04-10T06:04:17.640Z,62091.86
2019-04-10T06:06:44.322Z,62093.15
2019-04-10T06:09:12.256Z,62108.41
2019-04-10T06:11:39.459Z,62100.78
2019-04-10T06:14:22.096Z,62091.39
2019-04-10T06:16:48.955Z,62094.30
2019-04-10T06:19:36.503Z,62097.13
2019-04-10T06:22:03.213Z,62114.36
2019-04-10T06:24:32.152Z,62100.37
2019-04-10T06:26:59.710Z,62104.02
2019-04-10T06:29:47.674Z,62091.25
2019-04-10T06:32:14.028Z,62091.04
2019-04-10T06:34:40.859Z,62089.62
2019-04-10T06:40:14.246Z,62140.77
2019-04-10T06:45:44.192Z,62146.00
2019-04-10T06:48:10.912Z,62139.30
2019-04-10T06:50:39.248Z,62175.54
2019-04-10T06:53:06.825Z,62206.50
2019-04-10T06:55:33.261Z,62198.11
2019-04-10T06:58:00.766Z,62183.51
2019-04-10T07:00:28.565Z,62187.51
2019-04-10T07:05:37.003Z,62208.55
2019-04-10T07:08:00.577Z,62205.91
2019-04-10T07:10:28.584Z,62229.91
2019-04-10T07:12:51.200Z,62261.11
2019-04-10T07:15:21.159Z,62287.31
2019-04-10T07:17:46.932Z,62310.27
2019-04-10T07:20:17.416Z,62313.32
2019-04-10T07:25:17.766Z,62349.95
2019-04-10T07:27:44.141Z,62423.29
2019-04-10T07:30:11.787Z,62471.43
2019-04-10T07:32:41.200Z,62474.48
2019-04-10T07:35:06.928Z,62527.61
2019-04-10T07:37:34.055Z,62529.42
2019-04-10T07:40:04.273Z,62513.63
2019-04-10T07:42:35.230Z,62463.41
2019-04-10T07:47:37.977Z,62507.25
2019-04-10T07:53:04.276Z,62460.77
2019-04-10T07:55:30.914Z,62461.67
2019-04-10T07:57:59.268Z,62551.69
2019-04-10T08:00:26.857Z,62580.35
2019-04-10T08:02:53.745Z,62535.48
2019-04-10T08:05:20.980Z,62526.78
2019-04-10T08:10:36.802Z,62523.13
2019-04-10T08:13:04.522Z,62576.96
2019-04-10T08:15:32.116Z,62523.33
2019-04-10T08:17:58.390Z,62564.39
2019-04-10T08:20:24.622Z,62580.96
2019-04-10T08:22:51.200Z,62508.87
2019-04-10T08:25:18.454Z,62468.50
2019-04-10T08:27:46.026Z,62473.39
2019-04-10T08:30:12.563Z,62470.95
2019-04-10T08:32:51.444Z,62466.14
2019-04-10T08:35:27.574Z,62455.75
2019-04-10T08:37:53.902Z,62474.27
2019-04-10T08:40:21.143Z,62531.61
2019-04-10T08:42:49.229Z,62595.77
2019-04-10T08:45:16.852Z,62616.14
2019-04-10T08:47:44.237Z,62576.29
2019-04-10T08:52:53.626Z,62618.45
2019-04-10T08:55:19.992Z,62610.31
2019-04-10T08:57:46.242Z,62645.02
2019-04-10T09:00:34.427Z,62647.93
2019-04-10T09:03:00.747Z,62623.27
2019-04-10T09:05:27.880Z,62621.51
2019-04-10T09:07:55.184Z,62605.54
2019-04-10T09:10:22.595Z,62560.79
2019-04-10T09:12:49.585Z,62605.61
2019-04-10T09:15:16.048Z,62618.05
2019-04-10T09:17:42.391Z,62580.22
2019-04-10T09:20:09.168Z,62578.04
2019-04-10T09:22:57.218Z,62474.20
2019-04-10T09:25:26.905Z,62636.93
2019-04-10T09:28:14.071Z,62580.36
2019-04-10T09:30:40.739Z,62580.84
2019-04-10T09:33:16.873Z,62602.48
2019-04-10T09:35:59.205Z,62642.90
2019-04-10T09:38:26.478Z,62677.84
2019-04-10T09:40:53.652Z,62665.62
2019-04-10T09:43:20.980Z,62678.79
2019-04-10T09:45:48.161Z,62540.64
2019-04-10T09:48:14.452Z,62700.14
2019-04-10T09:50:41.756Z,62680.23
2019-04-10T09:53:08.884Z,62656.84
2019-04-10T09:55:36.209Z,62673.96
2019-04-10T09:58:03.862Z,62624.37
2019-04-10T10:00:30.104Z,62779.04
2019-04-10T10:02:56.358Z,62755.83
2019-04-10T10:05:22.646Z,62745.16
2019-04-10T10:07:48.893Z,62728.50
2019-04-10T10:10:15.131Z,62695.44
2019-04-10T10:12:41.383Z,62670.64
2019-04-10T10:15:07.830Z,62686.63
2019-04-10T10:17:34.886Z,62700.54
2019-04-10T10:23:16.542Z,62689.66
2019-04-10T10:25:43.656Z,62685.46
2019-04-10T10:28:11.809Z,62657.39
2019-04-10T10:30:39.753Z,62647.61
2019-04-10T10:35:49.498Z,62635.09
2019-04-10T10:38:16.641Z,62670.10
2019-04-10T10:41:05.273Z,62700.22
2019-04-10T10:43:32.180Z,62626.80
2019-04-10T10:46:00.864Z,62598.48
2019-04-10T10:53:46.182Z,62648.28
2019-04-10T10:56:12.428Z,62636.73
2019-04-10T10:58:39.663Z,62639.86
2019-04-10T11:01:07.406Z,62664.32
2019-04-10T11:03:56.552Z,62689.59
2019-04-10T11:06:22.801Z,62689.94
2019-04-10T11:08:49.048Z,62706.67
2019-04-10T11:11:17.100Z,62683.69
2019-04-10T11:13:44.876Z,62692.18
2019-04-10T11:16:12.964Z,62721.36
2019-04-10T11:21:54.679Z,62705.70
2019-04-10T11:24:22.735Z,62652.48
2019-04-10T11:26:50.423Z,62735.16
2019-04-10T11:31:48.954Z,62752.16
2019-04-10T11:36:46.094Z,62734.83
2019-04-10T11:39:22.119Z,62730.95
2019-04-10T11:41:41.366Z,62713.94
2019-04-10T11:44:28.529Z,62715.36
2019-04-10T11:46:55.644Z,62747.46
2019-04-10T11:49:23.714Z,62762.37
2019-04-10T11:51:53.627Z,62743.00
2019-04-10T11:54:23.640Z,62733.66
2019-04-10T11:56:49.072Z,62698.38
2019-04-10T11:59:21.142Z,62697.21
2019-04-10T12:01:46.348Z,62713.68
2019-04-10T12:04:13.955Z,62693.75
2019-04-10T12:06:40.547Z,62679.88
2019-04-10T12:11:41.557Z,62706.87
2019-04-10T12:14:31.917Z,62723.60
2019-04-10T12:16:59.548Z,62698.30
2019-04-10T12:19:26.887Z,62735.16
2019-04-10T12:21:53.948Z,62777.95
2019-04-10T12:24:20.191Z,62788.84
2019-04-10T12:26:46.444Z,62771.89
2019-04-10T12:29:14.075Z,62779.66
2019-04-10T12:31:41.930Z,62790.88
2019-04-10T12:40:31.105Z,62733.73
2019-04-10T12:42:57.343Z,62726.17
2019-04-10T12:45:24.325Z,62736.60
2019-04-10T12:48:12.887Z,62747.55
2019-04-10T12:50:39.185Z,62734.28
2019-04-10T12:53:05.409Z,62688.65
2019-04-10T12:55:32.544Z,62689.05
2019-04-10T12:58:06.600Z,62715.98
2019-04-10T13:00:28.293Z,62703.41
2019-04-10T13:02:54.650Z,62702.06
2019-04-10T13:05:21.081Z,62678.19
2019-04-10T13:07:47.698Z,62676.20
2019-04-10T13:10:15.481Z,62654.87
2019-04-10T13:12:41.810Z,62651.34
2019-04-10T13:15:29.776Z,62640.93
2019-04-10T13:17:57.120Z,62639.12
2019-04-10T13:23:22.538Z,62637.41
2019-04-10T13:26:10.465Z,62630.21
2019-04-10T13:28:36.761Z,62643.80
2019-04-10T13:34:01.376Z,62647.61
2019-04-10T13:36:27.645Z,62653.71
2019-04-10T13:38:54.790Z,62649.37
2019-04-10T13:41:22.117Z,62606.64
2019-04-10T13:43:48.376Z,62632.18
2019-04-10T13:48:47.359Z,62608.73
2019-04-10T13:54:16.545Z,62633.13
2019-04-10T13:59:25.330Z,62628.10
2019-04-10T14:01:52.204Z,62617.70
2019-04-10T14:04:18.773Z,62629.12
2019-04-10T14:06:48.859Z,62643.12
2019-04-10T14:09:31.317Z,62637.28
2019-04-10T14:12:07.961Z,62638.22
2019-04-10T14:14:37.049Z,62644.67
2019-04-10T14:17:06.862Z,62624.64
2019-04-10T14:19:54.164Z,62635.51
2019-04-10T14:22:20.503Z,62648.22
2019-04-10T14:24:49.168Z,62642.43
2019-04-10T14:27:34.778Z,62641.96
2019-04-10T14:30:01.209Z,62649.22
2019-04-10T14:32:47.367Z,62632.73
2019-04-10T14:35:14.783Z,62631.83
2019-04-10T14:38:02.960Z,62614.12
2019-04-10T14:40:30.523Z,62608.25
2019-04-10T14:43:16.827Z,62590.25
2019-04-10T14:51:06.075Z,62566.10
2019-04-10T14:53:33.423Z,62558.27
2019-04-10T14:55:59.902Z,62553.05
2019-04-10T14:58:28.150Z,62563.37
2019-04-10T15:01:14.124Z,62567.17
2019-04-10T15:03:40.553Z,62573.56
2019-04-10T15:06:07.076Z,62558.97
2019-04-10T15:08:33.481Z,62562.43
2019-04-10T15:11:00.368Z,62568.68
2019-04-10T15:13:29.677Z,62564.04
2019-04-10T15:15:56.735Z,62561.75
2019-04-10T15:18:24.254Z,62557.60
2019-04-10T15:20:50.527Z,62552.59
2019-04-10T15:23:16.768Z,62545.86
2019-04-10T15:25:43.742Z,62536.02
2019-04-10T15:28:11.177Z,62532.09
2019-04-10T15:30:37.449Z,62530.26
2019-04-10T15:33:04.515Z,62527.87
2019-04-10T15:35:32.887Z,62530.80
2019-04-10T15:38:00.289Z,62526.58
2019-04-10T15:40:27.673Z,62516.60
2019-04-10T15:42:54.781Z,62507.58
2019-04-10T15:45:21.783Z,62516.28
2019-04-10T15:48:10.565Z,62514.11
2019-04-10T15:50:37.133Z,62511.73
2019-04-10T15:53:24.400Z,62518.65
2019-04-10T15:55:51.658Z,62510.09
2019-04-10T15:58:19.368Z,62507.12
2019-04-10T16:00:45.657Z,62501.61
2019-04-10T16:03:11.957Z,62497.81
2019-04-10T16:05:38.395Z,62499.84
2019-04-10T16:08:04.777Z,62502.48
2019-04-10T16:21:00.672Z,62495.65
2019-04-10T16:28:40.602Z,62494.75
2019-04-10T16:31:07.540Z,62484.25
2019-04-10T16:33:35.746Z,62486.82
2019-04-10T16:39:07.532Z,62481.54
2019-04-10T16:41:33.810Z,62484.86
2019-04-10T16:46:34.141Z,62467.08
2019-04-10T16:49:00.354Z,62474.88
2019-04-10T16:51:26.602Z,62470.54
2019-04-10T16:54:12.682Z,62464.57
2019-04-10T16:56:58.750Z,62459.70
2019-04-10T16:59:25.550Z,62326.79
2019-04-10T17:01:53.190Z,62454.81
2019-04-10T17:04:20.417Z,62454.27
2019-04-10T17:06:46.662Z,62452.30
2019-04-10T17:11:47.397Z,62444.83
2019-04-10T17:14:13.637Z,62438.13
2019-04-10T17:16:40.025Z,62436.71
2019-04-10T17:19:06.232Z,62423.29
2019-04-10T17:21:32.495Z,62423.00
2019-04-10T17:23:58.884Z,62417.92
2019-04-10T17:26:25.206Z,62414.12
2019-04-10T17:28:52.483Z,62409.64
2019-04-10T17:31:19.654Z,62401.66
2019-04-10T17:33:46.034Z,62390.94
2019-04-10T17:36:12.276Z,62393.71
2019-04-10T17:38:38.641Z,62385.05
2019-04-10T17:41:04.995Z,62372.11
2019-04-10T17:43:31.245Z,62368.58
2019-04-10T17:45:58.641Z,62361.40
2019-04-10T17:48:25.981Z,62356.73
2019-04-10T17:50:55.212Z,62338.57
2019-04-10T17:53:23.153Z,62321.78
2019-04-10T17:55:51.519Z,62309.52
2019-04-10T17:58:19.196Z,62299.02
2019-04-10T18:03:46.019Z,62300.17
2019-04-10T18:06:06.875Z,62302.07
2019-04-10T18:08:34.714Z,62302.68
2019-04-10T18:11:00.971Z,62299.02
2019-04-10T18:13:27.222Z,62287.44
2019-04-10T18:15:54.115Z,62273.49
2019-04-10T18:18:21.965Z,62259.09
2019-04-10T18:20:49.532Z,62247.91
2019-04-10T18:23:17.486Z,62250.09
2019-04-10T18:25:44.597Z,62246.16
2019-04-10T18:28:11.662Z,62232.29
2019-04-10T18:30:39.030Z,62215.43
2019-04-10T18:38:27.798Z,62179.20
2019-04-10T18:41:01.306Z,62170.39
2019-04-10T18:43:22.397Z,62157.75
2019-04-10T18:45:58.409Z,62150.59
2019-04-10T18:48:16.848Z,62138.62
2019-04-10T18:50:43.448Z,62131.26
2019-04-10T18:53:11.290Z,62120.97
2019-04-10T18:55:38.669Z,62107.07
2019-04-10T19:06:21.078Z,62086.86
2019-04-10T19:09:00.077Z,62081.86
2019-04-10T19:11:22.045Z,62075.24
2019-04-10T19:13:43.653Z,62060.38
2019-04-10T19:16:10.981Z,62058.89
2019-04-10T19:18:39.493Z,62043.25
2019-04-10T19:21:07.082Z,62042.14
2019-04-10T19:23:34.681Z,62026.90
2019-04-10T19:26:00.997Z,62023.78
2019-04-10T19:28:31.151Z,62008.18
2019-04-10T19:31:19.432Z,62003.88
2019-04-10T19:33:43.571Z,62001.43
2019-04-10T19:36:09.917Z,61984.97
2019-04-10T19:38:36.122Z,61981.06
2019-04-10T19:41:02.666Z,61972.22
2019-04-10T19:43:30.577Z,61897.35
2019-04-10T19:45:58.522Z,61959.82
2019-04-10T19:48:25.534Z,61953.32
2019-04-10T19:50:51.910Z,61943.42
2019-04-10T19:53:19.202Z,61942.00
2019-04-10T19:55:46.313Z,61901.88
2019-04-10T19:58:12.577Z,61928.98
2019-04-10T20:00:38.910Z,61923.11
2019-04-10T20:03:05.696Z,61920.67
2019-04-10T20:05:33.693Z,61911.97
2019-04-10T20:08:01.706Z,61907.81
2019-04-10T20:10:27.939Z,61905.86
2019-04-10T20:12:55.152Z,61900.61
2019-04-10T20:15:22.576Z,61899.77
2019-04-10T20:17:48.848Z,61893.79
2019-04-10T20:20:15.245Z,61886.77
2019-04-10T20:22:41.823Z,61880.15
2019-04-10T20:25:08.468Z,61877.87
2019-04-10T20:27:36.133Z,61868.77
2019-04-10T20:33:20.910Z,61858.25
2019-04-10T20:35:48.847Z,61844.34
2019-04-10T20:38:15.542Z,61850.23
2019-04-10T20:43:13.614Z,61827.50
2019-04-10T20:45:39.967Z,61819.35
2019-04-10T20:48:06.611Z,61825.05
2019-04-10T20:50:34.161Z,61818.57
2019-04-10T20:53:22.019Z,61812.79
2019-04-10T20:55:50.135Z,61805.59
2019-04-10T20:58:19.104Z,61791.67
2019-04-10T21:00:47.123Z,61790.45
2019-04-10T21:03:13.602Z,61787.95
2019-04-10T21:05:40.216Z,61785.61
2019-04-10T21:08:09.299Z,61783.85
2019-04-10T21:13:06.491Z,61771.66
2019-04-10T21:15:33.434Z,61769.49
2019-04-10T21:17:59.703Z,61767.16
2019-04-10T21:20:27.157Z,61768.62
2019-04-10T21:22:54.153Z,61762.49
2019-04-10T21:25:21.131Z,61759.40
2019-04-10T21:27:50.942Z,61759.26
2019-04-10T21:33:38.834Z,61754.27
2019-04-10T21:36:05.323Z,61742.90
2019-04-10T21:38:32.269Z,61740.21
2019-04-10T21:40:59.745Z,61738.61
2019-04-10T21:43:26.230Z,61734.11
2019-04-10T21:45:52.582Z,61731.80
2019-04-10T21:48:18.955Z,61728.38
2019-04-10T21:50:46.054Z,61729.12
2019-04-10T21:53:14.211Z,61727.49
2019-04-10T21:55:41.775Z,61728.63
2019-04-10T21:58:08.255Z,61718.68
2019-04-10T22:00:54.418Z,61717.62
2019-04-10T22:03:21.112Z,61719.27
2019-04-10T22:06:07.399Z,61713.30
2019-04-10T22:08:54.103Z,61713.69
2019-04-10T22:14:08.892Z,61724.80
2019-04-10T22:16:35.757Z,61721.23
2019-04-10T22:19:03.768Z,61714.18
2019-04-10T22:21:31.461Z,61714.18
2019-04-10T22:23:58.653Z,61737.72
2019-04-10T22:26:25.894Z,61743.85
2019-04-10T22:28:52.775Z,61733.57
2019-04-10T22:31:20.374Z,61732.89
2019-04-10T22:33:46.861Z,61725.89
2019-04-10T22:36:13.135Z,61731.23
2019-04-10T22:38:39.900Z,61715.45
2019-04-10T22:43:38.681Z,61718.35
2019-04-10T22:46:05.769Z,61714.39
2019-04-10T22:48:32.906Z,61721.96
2019-04-10T22:51:01.182Z,61712.57
2019-04-10T22:56:02.607Z,61709.00
2019-04-10T22:58:28.924Z,61711.35
2019-04-10T23:00:55.908Z,61715.66
2019-04-10T23:03:24.439Z,61714.58
2019-04-10T23:05:51.527Z,61715.66
2019-04-10T23:08:17.787Z,61719.68
2019-04-10T23:10:44.070Z,61714.58
2019-04-10T23:13:10.529Z,61707.18
2019-04-10T23:15:39.719Z,61707.58
2019-04-10T23:20:39.744Z,61731.72
2019-04-10T23:23:06.960Z,61720.63
2019-04-10T23:25:34.256Z,61712.03
2019-04-10T23:28:01.386Z,61702.68
2019-04-10T23:30:28.658Z,61701.46
2019-04-10T23:32:55.832Z,61708.12
2019-04-10T23:35:22.192Z,61704.20
2019-04-10T23:37:48.477Z,61706.31
2019-04-10T23:40:14.725Z,61703.27
2019-04-10T23:42:41.091Z,61702.05
2019-04-10T23:45:29.473Z,61558.09
2019-04-10T23:47:58.156Z,61688.41
2019-04-10T23:50:26.163Z,61684.59
2019-04-10T23:52:53.533Z,61695.70
2019-04-10T23:55:19.954Z,61681.20
2019-04-10T23:57:46.410Z,61681.07
